Time;durP1;ratioP1;P1;durP2;ratioP2;P2;SDS_P1;SDS_P2;PMS_P1;PMS_P2;Temp;Humidity;BMP_temperature;BMP_pressure;BME280_temperature;BME280_humidity;BME280_pressure;Samples;Min_cycle;Max_cycle;Signal;HPM_P1;HPM_P2
2021/04/08 00:00:44;;;;;;;6.78;3.20;;;;;;;;;;5086448;28;20420;-63
2021/04/08 00:03:09;;;;;;;5.10;2.88;;;;;;;;;;5087560;28;20085;-63
2021/04/08 00:05:35;;;;;;;8.27;3.55;;;;;;;;;;5084597;28;20017;-63
2021/04/08 00:08:00;;;;;;;4.43;2.30;;;;;;;;;;5088115;28;20020;-63
2021/04/08 00:10:25;;;;;;;11.20;2.90;;;;;;;;;;5085752;28;20040;-62
2021/04/08 00:12:51;;;;;;;11.27;3.55;;;;;;;;;;5086749;28;20027;-62
2021/04/08 00:15:16;;;;;;;4.85;2.10;;;;;;;;;;5084755;28;20040;-63
2021/04/08 00:17:42;;;;;;;7.32;4.03;;;;;;;;;;5078340;28;20036;-62
2021/04/08 00:20:13;;;;;;;4.57;2.72;;;;;;;;;;5085235;28;20546;-62
2021/04/08 00:22:39;;;;;;;6.13;3.33;;;;;;;;;;5084580;28;20059;-63
2021/04/08 00:25:04;;;;;;;6.93;3.35;;;;;;;;;;5083911;28;20439;-63
2021/04/08 00:27:29;;;;;;;8.63;3.67;;;;;;;;;;5084354;28;20558;-63
2021/04/08 00:29:55;;;;;;;7.85;3.92;;;;;;;;;;5087287;28;20028;-63
2021/04/08 00:32:20;;;;;;;6.80;3.10;;;;;;;;;;5082358;28;20474;-63
2021/04/08 00:34:45;;;;;;;8.02;2.75;;;;;;;;;;5085207;28;20024;-63
2021/04/08 00:37:11;;;;;;;7.45;3.33;;;;;;;;;;5083129;28;20107;-63
2021/04/08 00:39:36;;;;;;;2.95;2.03;;;;;;;;;;5084126;28;20099;-63
2021/04/08 00:42:01;;;;;;;4.88;1.90;;;;;;;;;;5087267;28;20020;-62
2021/04/08 00:44:27;;;;;;;6.30;2.35;;;;;;;;;;5084361;28;20479;-63
2021/04/08 00:46:52;;;;;;;13.40;2.90;;;;;;;;;;5084171;28;20035;-63
2021/04/08 00:49:17;;;;;;;14.50;2.38;;;;;;;;;;5085773;28;20016;-63
2021/04/08 00:51:43;;;;;;;2.85;1.38;;;;;;;;;;5084193;28;20602;-63
2021/04/08 00:54:08;;;;;;;2.33;0.82;;;;;;;;;;5087074;28;20457;-62
2021/04/08 00:56:33;;;;;;;4.43;1.58;;;;;;;;;;5084003;28;20093;-63
2021/04/08 00:58:59;;;;;;;1.50;0.90;;;;;;;;;;5086857;28;20020;-63
2021/04/08 01:01:24;;;;;;;5.30;2.45;;;;;;;;;;5084890;28;20201;-63
2021/04/08 01:03:50;;;;;;;5.88;1.70;;;;;;;;;;5085678;28;20025;-63
2021/04/08 01:06:15;;;;;;;8.52;2.13;;;;;;;;;;5085950;28;20020;-63
2021/04/08 01:08:40;;;;;;;6.90;4.97;;;;;;;;;;5081608;28;20071;-62
2021/04/08 01:11:06;;;;;;;8.25;3.47;;;;;;;;;;5086964;28;20036;-62
2021/04/08 01:13:32;;;;;;;3.30;1.55;;;;;;;;;;5083260;28;20466;-62
2021/04/08 01:16:02;;;;;;;5.95;1.48;;;;;;;;;;5084735;28;20056;-62
2021/04/08 01:18:31;;;;;;;5.47;2.92;;;;;;;;;;5083823;28;20035;-62
2021/04/08 01:21:18;;;;;;;5.78;2.35;;;;;;;;;;5076034;28;20019;-63
2021/04/08 01:23:52;;;;;;;5.18;2.45;;;;;;;;;;5084337;28;20027;-63
2021/04/08 01:26:26;;;;;;;2.00;1.20;;;;;;;;;;5083675;28;20028;-62
2021/04/08 01:29:01;;;;;;;2.80;1.42;;;;;;;;;;5085328;28;20028;-63
2021/04/08 01:31:26;;;;;;;5.95;3.90;;;;;;;;;;5084067;28;20043;-63
2021/04/08 01:33:57;;;;;;;6.60;2.13;;;;;;;;;;5085340;28;20020;-63
2021/04/08 01:36:23;;;;;;;3.65;1.77;;;;;;;;;;5084588;28;20024;-62
2021/04/08 01:38:48;;;;;;;5.22;1.65;;;;;;;;;;5084961;28;20044;-62
2021/04/08 01:41:17;;;;;;;4.80;2.10;;;;;;;;;;5085693;28;20516;-62
2021/04/08 01:43:44;;;;;;;3.10;1.67;;;;;;;;;;5083956;28;20089;-62
2021/04/08 01:46:10;;;;;;;8.10;2.05;;;;;;;;;;5084511;28;20020;-62
2021/04/08 01:48:36;;;;;;;4.45;2.30;;;;;;;;;;5082831;28;20089;-63
2021/04/08 01:51:03;;;;;;;14.05;2.08;;;;;;;;;;5081803;28;20451;-62
2021/04/08 01:53:30;;;;;;;5.70;1.60;;;;;;;;;;5082077;28;20028;-62
2021/04/08 01:55:58;;;;;;;3.17;1.88;;;;;;;;;;5075553;28;20595;-63
2021/04/08 01:58:24;;;;;;;8.88;1.88;;;;;;;;;;5083692;28;20431;-62
2021/04/08 02:00:50;;;;;;;2.78;1.17;;;;;;;;;;5084868;28;20101;-62
2021/04/08 02:03:16;;;;;;;2.25;1.05;;;;;;;;;;5084727;28;20016;-62
2021/04/08 02:05:42;;;;;;;3.13;1.48;;;;;;;;;;5080045;28;20036;-63
2021/04/08 02:08:08;;;;;;;10.32;1.40;;;;;;;;;;5085534;28;20030;-63
2021/04/08 02:10:33;;;;;;;4.63;1.65;;;;;;;;;;5081178;28;20063;-62
2021/04/08 02:12:59;;;;;;;7.38;2.25;;;;;;;;;;5085501;28;20020;-62
2021/04/08 02:15:25;;;;;;;5.45;1.75;;;;;;;;;;5081347;28;20091;-63
2021/04/08 02:17:57;;;;;;;3.35;1.25;;;;;;;;;;5084391;28;20043;-63
2021/04/08 02:20:24;;;;;;;5.13;1.15;;;;;;;;;;5083743;28;20081;-62
2021/04/08 02:22:53;;;;;;;4.47;1.45;;;;;;;;;;5084434;28;20013;-62
2021/04/08 02:25:21;;;;;;;3.45;1.40;;;;;;;;;;5084203;28;20122;-62
2021/04/08 02:27:47;;;;;;;6.00;2.17;;;;;;;;;;5084413;28;20133;-63
2021/04/08 02:30:14;;;;;;;3.38;1.45;;;;;;;;;;5079247;28;20045;-63
2021/04/08 02:32:40;;;;;;;8.27;1.45;;;;;;;;;;5082716;28;20421;-62
2021/04/08 02:35:09;;;;;;;3.80;0.90;;;;;;;;;;5083732;28;20114;-62
2021/04/08 02:37:34;;;;;;;8.38;2.10;;;;;;;;;;5081918;28;20379;-62
2021/04/08 02:40:00;;;;;;;1.00;0.60;;;;;;;;;;5084993;28;20024;-62
2021/04/08 02:42:25;;;;;;;2.13;0.70;;;;;;;;;;5082666;28;20102;-62
2021/04/08 02:44:51;;;;;;;2.05;1.02;;;;;;;;;;5084276;28;20059;-63
2021/04/08 02:47:16;;;;;;;4.50;0.70;;;;;;;;;;5082355;28;20032;-63
2021/04/08 02:49:41;;;;;;;12.05;0.85;;;;;;;;;;5083088;28;20033;-62
2021/04/08 02:52:11;;;;;;;4.05;1.15;;;;;;;;;;5085160;28;20020;-62
2021/04/08 02:54:36;;;;;;;2.20;1.30;;;;;;;;;;5082161;28;20035;-63
2021/04/08 02:57:02;;;;;;;1.95;0.70;;;;;;;;;;5085044;28;20466;-63
2021/04/08 02:59:37;;;;;;;3.90;1.42;;;;;;;;;;5082742;28;20095;-62
2021/04/08 03:02:05;;;;;;;1.40;0.90;;;;;;;;;;5076019;28;20603;-62
2021/04/08 03:04:34;;;;;;;2.42;0.90;;;;;;;;;;5081702;28;20099;-63
2021/04/08 03:07:00;;;;;;;1.55;0.57;;;;;;;;;;5073760;28;20025;-62
2021/04/08 03:09:33;;;;;;;4.20;0.65;;;;;;;;;;5082637;28;20020;-63
2021/04/08 03:12:03;;;;;;;2.15;0.38;;;;;;;;;;5074924;28;20031;-63
2021/04/08 03:14:28;;;;;;;1.13;0.70;;;;;;;;;;5080619;28;20470;-63
2021/04/08 03:16:55;;;;;;;3.03;1.27;;;;;;;;;;5081319;28;20100;-63
2021/04/08 03:19:25;;;;;;;2.45;0.77;;;;;;;;;;5082911;28;20062;-63
2021/04/08 03:21:51;;;;;;;0.63;0.43;;;;;;;;;;5084128;28;20028;-62
2021/04/08 03:24:18;;;;;;;2.95;0.95;;;;;;;;;;5083922;28;20028;-62
2021/04/08 03:26:43;;;;;;;2.63;1.08;;;;;;;;;;5083377;28;20032;-63
2021/04/08 03:29:09;;;;;;;3.75;0.85;;;;;;;;;;5077354;28;20016;-63
2021/04/08 03:31:35;;;;;;;0.88;0.70;;;;;;;;;;5082023;28;20052;-62
2021/04/08 03:34:00;;;;;;;1.23;0.88;;;;;;;;;;5084504;28;20050;-62
2021/04/08 03:36:26;;;;;;;5.38;1.15;;;;;;;;;;5082908;28;20036;-62
2021/04/08 03:38:52;;;;;;;3.03;0.50;;;;;;;;;;5083826;28;20032;-62
2021/04/08 03:41:18;;;;;;;3.92;1.63;;;;;;;;;;5083959;28;20038;-62
2021/04/08 03:43:43;;;;;;;5.60;1.13;;;;;;;;;;5082581;28;20095;-63
2021/04/08 03:46:09;;;;;;;3.20;1.23;;;;;;;;;;5083460;28;20032;-62
2021/04/08 03:48:35;;;;;;;2.58;0.45;;;;;;;;;;5081358;28;20442;-62
2021/04/08 03:51:01;;;;;;;2.10;0.70;;;;;;;;;;5084694;28;20032;-63
2021/04/08 03:53:27;;;;;;;1.33;0.82;;;;;;;;;;5083792;28;20024;-62
2021/04/08 03:55:53;;;;;;;3.42;0.88;;;;;;;;;;5087961;28;20135;-63
2021/04/08 03:58:19;;;;;;;2.13;1.88;;;;;;;;;;5081073;28;20510;-62
2021/04/08 04:00:46;;;;;;;3.25;1.63;;;;;;;;;;5082396;28;20025;-62
2021/04/08 04:03:12;;;;;;;3.30;1.02;;;;;;;;;;5087721;28;20024;-62
2021/04/08 04:05:38;;;;;;;2.25;1.00;;;;;;;;;;5082340;28;20157;-62
2021/04/08 04:08:03;;;;;;;6.60;1.40;;;;;;;;;;5086183;28;20223;-62
2021/04/08 04:10:29;;;;;;;4.97;1.38;;;;;;;;;;5085301;28;20454;-63
2021/04/08 04:12:55;;;;;;;8.85;0.85;;;;;;;;;;5087403;28;20046;-63
2021/04/08 04:15:21;;;;;;;2.15;0.85;;;;;;;;;;5084291;28;20511;-63
2021/04/08 04:17:46;;;;;;;6.00;1.40;;;;;;;;;;5085039;28;20032;-62
2021/04/08 04:20:12;;;;;;;7.93;1.35;;;;;;;;;;5087594;28;20032;-62
2021/04/08 04:22:38;;;;;;;3.13;1.73;;;;;;;;;;5085040;28;20021;-62
2021/04/08 04:25:04;;;;;;;3.28;1.00;;;;;;;;;;5083586;28;20028;-62
2021/04/08 04:27:29;;;;;;;1.50;0.85;;;;;;;;;;5079678;28;20020;-63
2021/04/08 04:29:55;;;;;;;2.95;1.20;;;;;;;;;;5078515;28;20114;-62
2021/04/08 04:32:20;;;;;;;2.83;1.33;;;;;;;;;;5083776;28;20028;-62
2021/04/08 04:34:46;;;;;;;1.85;0.90;;;;;;;;;;5085827;28;20097;-63
2021/04/08 04:37:11;;;;;;;1.33;1.23;;;;;;;;;;5085686;28;20543;-62
2021/04/08 04:39:37;;;;;;;1.65;1.38;;;;;;;;;;5084607;28;20357;-63
2021/04/08 04:42:03;;;;;;;3.08;1.02;;;;;;;;;;5087621;28;20092;-63
2021/04/08 04:44:28;;;;;;;9.63;5.72;;;;;;;;;;5084704;28;20474;-63
2021/04/08 04:46:55;;;;;;;3.60;2.47;;;;;;;;;;5083698;28;20024;-63
2021/04/08 04:49:20;;;;;;;4.50;2.60;;;;;;;;;;5085674;28;20089;-63
2021/04/08 04:51:45;;;;;;;8.27;1.55;;;;;;;;;;5085708;28;20033;-63
2021/04/08 04:54:11;;;;;;;5.00;0.85;;;;;;;;;;5081552;28;20149;-63
2021/04/08 04:56:36;;;;;;;8.55;1.08;;;;;;;;;;5073347;28;20024;-63
2021/04/08 04:59:01;;;;;;;17.85;7.00;;;;;;;;;;5087178;28;20016;-63
2021/04/08 05:01:27;;;;;;;10.50;7.43;;;;;;;;;;5084818;28;20024;-63
2021/04/08 05:03:52;;;;;;;4.22;2.53;;;;;;;;;;5086034;28;20016;-63
2021/04/08 05:06:19;;;;;;;9.23;3.42;;;;;;;;;;5086170;28;20024;-63
2021/04/08 05:08:45;;;;;;;11.55;2.92;;;;;;;;;;5084481;28;20028;-63
2021/04/08 05:11:10;;;;;;;4.68;3.25;;;;;;;;;;5087651;28;20024;-63
2021/04/08 05:13:35;;;;;;;6.03;3.95;;;;;;;;;;5082454;28;20471;-68
2021/04/08 05:16:01;;;;;;;3.85;1.77;;;;;;;;;;5084693;28;20056;-69
2021/04/08 05:18:26;;;;;;;12.07;2.17;;;;;;;;;;5080999;28;20043;-68
2021/04/08 05:20:51;;;;;;;14.48;10.90;;;;;;;;;;5087122;28;20174;-68
2021/04/08 05:23:16;;;;;;;8.23;4.80;;;;;;;;;;5085508;28;20012;-69
2021/04/08 05:25:42;;;;;;;4.63;3.17;;;;;;;;;;5084366;28;20028;-68
2021/04/08 05:28:07;;;;;;;4.00;3.00;;;;;;;;;;5081085;28;20020;-68
2021/04/08 05:30:32;;;;;;;4.88;2.80;;;;;;;;;;5082419;28;20490;-68
2021/04/08 05:32:58;;;;;;;5.13;1.73;;;;;;;;;;5086813;28;20031;-63
2021/04/08 05:35:23;;;;;;;5.95;2.40;;;;;;;;;;5079586;28;20021;-63
2021/04/08 05:37:48;;;;;;;3.20;1.38;;;;;;;;;;5084977;28;20064;-63
2021/04/08 05:40:14;;;;;;;7.47;1.95;;;;;;;;;;5080223;28;20375;-63
2021/04/08 05:42:43;;;;;;;4.45;1.38;;;;;;;;;;5084231;28;20058;-63
2021/04/08 05:45:08;;;;;;;3.45;0.82;;;;;;;;;;5085297;28;20032;-63
2021/04/08 05:47:33;;;;;;;11.05;2.35;;;;;;;;;;5083633;28;20113;-63
2021/04/08 05:49:59;;;;;;;14.52;1.95;;;;;;;;;;5086187;28;20035;-63
2021/04/08 05:52:24;;;;;;;8.32;3.50;;;;;;;;;;5083004;28;20016;-63
2021/04/08 05:54:49;;;;;;;5.50;2.38;;;;;;;;;;5085099;28;20062;-64
2021/04/08 05:57:14;;;;;;;9.18;3.17;;;;;;;;;;5085406;28;20065;-63
2021/04/08 05:59:40;;;;;;;20.95;8.70;;;;;;;;;;5082772;28;20028;-63
2021/04/08 06:02:05;;;;;;;13.38;11.98;;;;;;;;;;5075612;28;20016;-64
2021/04/08 06:04:30;;;;;;;9.27;6.43;;;;;;;;;;5078110;28;20525;-63
2021/04/08 06:06:56;;;;;;;8.30;6.55;;;;;;;;;;5084087;28;20020;-68
2021/04/08 06:09:21;;;;;;;9.77;5.50;;;;;;;;;;5082780;28;20020;-63
2021/04/08 06:11:46;;;;;;;21.23;6.38;;;;;;;;;;5084764;28;20024;-63
2021/04/08 06:14:12;;;;;;;19.13;7.07;;;;;;;;;;5082196;28;20483;-68
2021/04/08 06:16:37;;;;;;;11.35;6.95;;;;;;;;;;5079931;28;20044;-68
2021/04/08 06:19:02;;;;;;;15.00;7.25;;;;;;;;;;5084532;28;20020;-63
2021/04/08 06:21:27;;;;;;;16.67;8.38;;;;;;;;;;5077431;28;20036;-63
2021/04/08 06:23:53;;;;;;;8.63;4.47;;;;;;;;;;5074931;28;20024;-68
2021/04/08 06:26:18;;;;;;;11.18;5.32;;;;;;;;;;5078454;28;20025;-63
2021/04/08 06:28:44;;;;;;;19.00;6.60;;;;;;;;;;5081525;28;20386;-64
2021/04/08 06:31:09;;;;;;;18.73;9.48;;;;;;;;;;5086230;28;20043;-64
2021/04/08 06:33:34;;;;;;;15.88;8.48;;;;;;;;;;5072074;28;20422;-64
2021/04/08 06:36:00;;;;;;;15.35;7.88;;;;;;;;;;5083375;28;20127;-69
2021/04/08 06:38:25;;;;;;;23.30;10.75;;;;;;;;;;5084087;28;20052;-63
2021/04/08 06:40:50;;;;;;;33.45;10.32;;;;;;;;;;5085026;28;20028;-63
2021/04/08 06:43:16;;;;;;;8.77;5.15;;;;;;;;;;5084500;28;20024;-62
2021/04/08 06:45:45;;;;;;;16.77;6.85;;;;;;;;;;5077098;28;20340;-62
2021/04/08 06:48:29;;;;;;;26.02;8.50;;;;;;;;;;5074752;28;20074;-65
2021/04/08 06:50:54;;;;;;;31.90;11.60;;;;;;;;;;5077357;28;20459;-64
2021/04/08 06:53:20;;;;;;;23.88;9.48;;;;;;;;;;5076823;28;20012;-65
2021/04/08 06:55:49;;;;;;;29.58;9.63;;;;;;;;;;5071753;28;20505;-62
2021/04/08 06:58:15;;;;;;;14.60;7.60;;;;;;;;;;5078063;28;20027;-64
2021/04/08 07:00:41;;;;;;;29.23;7.22;;;;;;;;;;5078826;28;20033;-68
2021/04/08 07:03:08;;;;;;;34.42;7.82;;;;;;;;;;5082369;28;20024;-65
2021/04/08 07:05:33;;;;;;;16.17;6.05;;;;;;;;;;5082214;28;20115;-64
2021/04/08 07:07:58;;;;;;;114.95;32.45;;;;;;;;;;5085729;28;20107;-64
2021/04/08 07:10:24;;;;;;;27.20;10.32;;;;;;;;;;5083396;28;20036;-64
2021/04/08 07:12:53;;;;;;;7.57;5.28;;;;;;;;;;5084594;28;20029;-63
2021/04/08 07:15:18;;;;;;;8.02;4.47;;;;;;;;;;5082425;28;20032;-64
2021/04/08 07:17:44;;;;;;;11.27;2.63;;;;;;;;;;5079977;28;20425;-64
2021/04/08 07:20:09;;;;;;;9.70;2.97;;;;;;;;;;5085581;28;20486;-63
2021/04/08 07:22:34;;;;;;;4.28;2.08;;;;;;;;;;5082683;28;20068;-64
2021/04/08 07:25:00;;;;;;;3.08;1.33;;;;;;;;;;5085716;28;20128;-64
2021/04/08 07:27:25;;;;;;;5.82;2.65;;;;;;;;;;5084037;28;20020;-64
2021/04/08 07:30:01;;;;;;;7.05;2.40;;;;;;;;;;5088524;28;20402;-64
2021/04/08 07:32:28;;;;;;;4.50;2.45;;;;;;;;;;5086947;28;20077;-63
2021/04/08 07:34:57;;;;;;;13.32;4.72;;;;;;;;;;5088006;28;20116;-62
2021/04/08 07:37:24;;;;;;;8.23;2.22;;;;;;;;;;5086447;28;20111;-62
2021/04/08 07:39:50;;;;;;;5.20;2.42;;;;;;;;;;5083843;28;20020;-62
2021/04/08 07:42:18;;;;;;;8.02;6.78;;;;;;;;;;5084862;28;20378;-62
2021/04/08 07:44:50;;;;;;;4.28;1.83;;;;;;;;;;5086160;28;20028;-62
2021/04/08 07:47:29;;;;;;;4.22;0.95;;;;;;;;;;5087577;28;20043;-62
2021/04/08 07:50:16;;;;;;;16.77;2.63;;;;;;;;;;5084133;28;20030;-62
2021/04/08 07:52:42;;;;;;;2.55;1.05;;;;;;;;;;5085200;28;20032;-62
2021/04/08 07:55:08;;;;;;;14.85;4.53;;;;;;;;;;5081585;28;20013;-62
2021/04/08 07:57:52;;;;;;;4.57;2.65;;;;;;;;;;5084637;28;20035;-62
2021/04/08 08:00:20;;;;;;;14.38;2.28;;;;;;;;;;5085270;28;20024;-62
2021/04/08 08:02:46;;;;;;;4.93;1.15;;;;;;;;;;5075486;28;20438;-60
2021/04/08 08:05:15;;;;;;;8.43;2.20;;;;;;;;;;5072308;28;20029;-60
2021/04/08 08:07:40;;;;;;;4.35;1.77;;;;;;;;;;5079381;28;20089;-60
2021/04/08 08:10:06;;;;;;;6.38;2.67;;;;;;;;;;5077694;28;20024;-60
2021/04/08 08:12:32;;;;;;;10.98;1.85;;;;;;;;;;5084833;28;20017;-60
2021/04/08 08:15:16;;;;;;;2.38;1.13;;;;;;;;;;5087520;28;20070;-60
2021/04/08 08:17:42;;;;;;;4.00;1.65;;;;;;;;;;5079742;28;20029;-59
2021/04/08 08:20:07;;;;;;;5.38;1.60;;;;;;;;;;5087706;28;20038;-60
2021/04/08 08:22:37;;;;;;;6.35;1.83;;;;;;;;;;5083362;28;20031;-60
2021/04/08 08:25:03;;;;;;;4.65;1.60;;;;;;;;;;5086399;28;20050;-59
2021/04/08 08:27:40;;;;;;;3.92;1.33;;;;;;;;;;5083507;28;20485;-59
2021/04/08 08:30:14;;;;;;;6.78;1.70;;;;;;;;;;5078379;28;20074;-59
2021/04/08 08:32:59;;;;;;;5.05;2.42;;;;;;;;;;5084050;28;20036;-60
2021/04/08 08:35:25;;;;;;;2.53;1.85;;;;;;;;;;5078332;28;20054;-60
2021/04/08 08:37:50;;;;;;;16.02;10.95;;;;;;;;;;5085960;28;20024;-60
2021/04/08 08:40:15;;;;;;;10.82;2.38;;;;;;;;;;5086069;28;20027;-60
2021/04/08 08:42:41;;;;;;;8.63;2.80;;;;;;;;;;5084860;28;20021;-61
2021/04/08 08:45:06;;;;;;;5.28;2.00;;;;;;;;;;5087477;28;20020;-62
2021/04/08 08:47:34;;;;;;;4.63;1.73;;;;;;;;;;5084399;28;20028;-60
2021/04/08 08:50:00;;;;;;;7.38;2.97;;;;;;;;;;5087335;28;20024;-60
2021/04/08 08:52:32;;;;;;;14.25;2.22;;;;;;;;;;5084411;28;20023;-60
2021/04/08 08:54:57;;;;;;;15.43;1.65;;;;;;;;;;5076578;28;20078;-60
2021/04/08 08:57:24;;;;;;;7.47;2.20;;;;;;;;;;5085286;28;20075;-60
2021/04/08 08:59:50;;;;;;;5.90;1.77;;;;;;;;;;5085985;28;20020;-61
2021/04/08 09:02:16;;;;;;;14.10;2.00;;;;;;;;;;5086131;28;20466;-60
2021/04/08 09:04:41;;;;;;;7.85;2.35;;;;;;;;;;5084611;28;20402;-60
2021/04/08 09:07:08;;;;;;;5.53;1.83;;;;;;;;;;5086588;28;20035;-59
2021/04/08 09:09:36;;;;;;;8.65;3.85;;;;;;;;;;5083246;28;20025;-60
2021/04/08 09:12:04;;;;;;;19.75;3.13;;;;;;;;;;5086726;28;20024;-59
2021/04/08 09:14:31;;;;;;;4.00;1.98;;;;;;;;;;5083651;28;20103;-60
2021/04/08 09:16:57;;;;;;;6.55;2.42;;;;;;;;;;5075670;28;20113;-60
2021/04/08 09:19:28;;;;;;;4.40;1.27;;;;;;;;;;5084947;28;20028;-60
2021/04/08 09:21:56;;;;;;;10.23;3.25;;;;;;;;;;5085461;28;20661;-60
2021/04/08 09:24:23;;;;;;;1.63;1.02;;;;;;;;;;5084639;28;20372;-60
2021/04/08 09:26:51;;;;;;;3.95;1.75;;;;;;;;;;5085099;28;20375;-59
2021/04/08 09:29:37;;;;;;;7.15;2.17;;;;;;;;;;5085633;28;20373;-59
2021/04/08 09:32:21;;;;;;;9.13;1.02;;;;;;;;;;5077070;28;20051;-59
2021/04/08 09:35:07;;;;;;;15.10;7.57;;;;;;;;;;5084207;28;20367;-59
2021/04/08 09:37:45;;;;;;;15.18;8.25;;;;;;;;;;5073006;28;20264;-59
2021/04/08 09:40:34;;;;;;;7.93;3.72;;;;;;;;;;5082121;28;20087;-59
2021/04/08 09:43:00;;;;;;;2.42;1.60;;;;;;;;;;5069042;28;20040;-72
2021/04/08 09:45:26;;;;;;;7.90;1.55;;;;;;;;;;5074629;28;20363;-71
2021/04/08 09:48:10;;;;;;;5.32;1.90;;;;;;;;;;5073324;28;20028;-70
2021/04/08 09:50:43;;;;;;;4.95;2.03;;;;;;;;;;5054109;28;20033;-68
2021/04/08 09:53:08;;;;;;;6.70;3.08;;;;;;;;;;5066902;28;20028;-71
2021/04/08 09:55:34;;;;;;;5.65;3.55;;;;;;;;;;5070654;28;20024;-71
2021/04/08 09:58:00;;;;;;;5.28;1.63;;;;;;;;;;5069616;28;20033;-71
2021/04/08 10:00:25;;;;;;;8.82;2.25;;;;;;;;;;5068393;28;20032;-72
2021/04/08 10:02:57;;;;;;;3.58;1.95;;;;;;;;;;5069655;28;20082;-70
2021/04/08 10:05:22;;;;;;;8.90;1.38;;;;;;;;;;5068546;28;20101;-70
2021/04/08 10:07:54;;;;;;;3.85;1.27;;;;;;;;;;5067268;28;20769;-70
2021/04/08 10:10:21;;;;;;;3.97;2.15;;;;;;;;;;5068051;28;20024;-71
2021/04/08 10:12:47;;;;;;;2.67;1.75;;;;;;;;;;5071110;28;20426;-72
2021/04/08 10:15:16;;;;;;;3.03;1.75;;;;;;;;;;5064024;28;20054;-70
2021/04/08 10:17:41;;;;;;;2.53;1.70;;;;;;;;;;5068301;28;20050;-72
2021/04/08 10:20:08;;;;;;;3.10;1.25;;;;;;;;;;5070888;28;20059;-72
2021/04/08 10:22:40;;;;;;;2.38;1.10;;;;;;;;;;5073536;28;20016;-71
2021/04/08 10:25:06;;;;;;;5.50;3.08;;;;;;;;;;5071417;28;20474;-71
2021/04/08 10:27:31;;;;;;;7.45;4.00;;;;;;;;;;5064315;28;20032;-71
2021/04/08 10:29:57;;;;;;;7.28;2.50;;;;;;;;;;5066178;28;20028;-71
2021/04/08 10:32:29;;;;;;;11.15;5.78;;;;;;;;;;5065993;28;20467;-72
2021/04/08 10:34:55;;;;;;;7.70;2.80;;;;;;;;;;5065593;28;20081;-73
2021/04/08 10:37:20;;;;;;;2.50;1.83;;;;;;;;;;5065368;28;20386;-72
2021/04/08 10:39:46;;;;;;;3.20;0.95;;;;;;;;;;5065347;28;20056;-72
2021/04/08 10:42:12;;;;;;;3.25;1.70;;;;;;;;;;5064834;28;20059;-72
2021/04/08 10:44:39;;;;;;;1.98;1.27;;;;;;;;;;5064021;28;20133;-72
2021/04/08 10:47:07;;;;;;;2.95;0.85;;;;;;;;;;5065477;28;20016;-72
2021/04/08 10:49:54;;;;;;;3.03;0.93;;;;;;;;;;5064964;28;20479;-72
2021/04/08 10:52:20;;;;;;;3.50;1.83;;;;;;;;;;5064182;28;20101;-71
2021/04/08 10:54:48;;;;;;;2.50;1.58;;;;;;;;;;5064462;28;20446;-71
2021/04/08 10:57:14;;;;;;;6.00;2.13;;;;;;;;;;5066126;28;20032;-72
2021/04/08 10:59:40;;;;;;;5.25;1.67;;;;;;;;;;5067862;28;20364;-71
2021/04/08 11:02:22;;;;;;;3.00;1.25;;;;;;;;;;5072355;28;20016;-71
2021/04/08 11:04:48;;;;;;;1.52;1.25;;;;;;;;;;5073250;28;20024;-72
2021/04/08 11:07:14;;;;;;;1.00;0.63;;;;;;;;;;5072261;28;20399;-72
2021/04/08 11:09:39;;;;;;;15.07;3.85;;;;;;;;;;5083209;28;20040;-72
2021/04/08 11:12:15;;;;;;;5.57;1.42;;;;;;;;;;5080002;28;20499;-71
2021/04/08 11:14:44;;;;;;;3.67;2.03;;;;;;;;;;5083136;28;20522;-71
2021/04/08 11:17:09;;;;;;;9.95;2.45;;;;;;;;;;5082304;28;20088;-71
2021/04/08 11:19:36;;;;;;;1.48;1.17;;;;;;;;;;5072321;28;20861;-71
2021/04/08 11:22:01;;;;;;;3.58;1.27;;;;;;;;;;5070253;28;20016;-70
2021/04/08 11:24:27;;;;;;;10.85;1.27;;;;;;;;;;5067114;28;20037;-72
2021/04/08 11:26:53;;;;;;;2.22;1.13;;;;;;;;;;5069905;28;20017;-72
2021/04/08 11:29:27;;;;;;;5.85;1.30;;;;;;;;;;5070288;28;20116;-72
2021/04/08 11:32:12;;;;;;;5.15;1.65;;;;;;;;;;5065344;28;20050;-71
2021/04/08 11:34:41;;;;;;;5.50;1.67;;;;;;;;;;5068569;28;20025;-71
2021/04/08 11:37:06;;;;;;;12.60;3.03;;;;;;;;;;5070040;28;20025;-72
2021/04/08 11:39:32;;;;;;;3.33;1.55;;;;;;;;;;5069719;28;20069;-70
2021/04/08 11:42:11;;;;;;;3.92;1.08;;;;;;;;;;5069739;28;20040;-72
2021/04/08 11:44:37;;;;;;;5.40;1.23;;;;;;;;;;5067589;28;20016;-72
2021/04/08 11:47:09;;;;;;;4.70;1.58;;;;;;;;;;5074232;28;20092;-71
2021/04/08 11:49:41;;;;;;;1.80;0.88;;;;;;;;;;5063526;28;20020;-72
2021/04/08 11:52:10;;;;;;;2.28;0.88;;;;;;;;;;5069325;28;20471;-72
2021/04/08 11:54:35;;;;;;;2.97;1.30;;;;;;;;;;5069107;28;20619;-72
2021/04/08 11:57:05;;;;;;;3.00;1.65;;;;;;;;;;5067368;28;20052;-72
2021/04/08 11:59:33;;;;;;;0.77;0.35;;;;;;;;;;5068814;28;20481;-72
2021/04/08 12:01:58;;;;;;;2.10;0.98;;;;;;;;;;5069351;28;20028;-72
2021/04/08 12:04:25;;;;;;;5.22;3.13;;;;;;;;;;5066095;28;20028;-72
2021/04/08 12:06:51;;;;;;;4.13;1.38;;;;;;;;;;5069790;28;20059;-72
2021/04/08 12:09:17;;;;;;;21.42;4.93;;;;;;;;;;5069740;28;20104;-71
2021/04/08 12:11:55;;;;;;;4.00;1.40;;;;;;;;;;5069857;28;20736;-73
2021/04/08 12:14:21;;;;;;;3.33;1.25;;;;;;;;;;5065521;28;20027;-71
2021/04/08 12:17:05;;;;;;;9.35;2.05;;;;;;;;;;5068894;28;20064;-72
2021/04/08 12:19:31;;;;;;;1.48;1.17;;;;;;;;;;5068247;28;20058;-72
2021/04/08 12:22:07;;;;;;;1.65;0.95;;;;;;;;;;5072130;28;20426;-72
2021/04/08 12:24:32;;;;;;;2.35;1.20;;;;;;;;;;5067717;28;20090;-72
2021/04/08 12:26:58;;;;;;;8.52;0.80;;;;;;;;;;5068858;28;20044;-73
2021/04/08 12:29:24;;;;;;;1.05;0.50;;;;;;;;;;5071222;28;20549;-72
2021/04/08 12:31:50;;;;;;;8.00;1.50;;;;;;;;;;5071539;28;20020;-73
2021/04/08 12:34:16;;;;;;;5.07;0.80;;;;;;;;;;5069171;28;20027;-73
2021/04/08 12:36:42;;;;;;;9.75;1.33;;;;;;;;;;5068811;28;20029;-72
2021/04/08 12:39:07;;;;;;;5.10;1.63;;;;;;;;;;5068196;28;20153;-73
2021/04/08 12:41:32;;;;;;;3.70;0.82;;;;;;;;;;5068889;28;20020;-73
2021/04/08 12:43:58;;;;;;;3.17;1.55;;;;;;;;;;5068666;28;20089;-73
2021/04/08 12:46:23;;;;;;;8.10;2.63;;;;;;;;;;5071190;28;20131;-72
2021/04/08 12:48:49;;;;;;;1.52;1.02;;;;;;;;;;5065425;28;20430;-73
2021/04/08 12:51:14;;;;;;;5.72;2.15;;;;;;;;;;5068441;28;20032;-73
2021/04/08 12:53:39;;;;;;;5.38;1.63;;;;;;;;;;5068241;28;20044;-73
2021/04/08 12:56:05;;;;;;;2.47;1.67;;;;;;;;;;5071196;28;20039;-72
2021/04/08 12:58:30;;;;;;;4.68;2.10;;;;;;;;;;5067903;28;20101;-73
2021/04/08 13:00:55;;;;;;;5.78;1.23;;;;;;;;;;5068555;28;20052;-73
2021/04/08 13:03:21;;;;;;;11.45;2.25;;;;;;;;;;5066344;28;20126;-72
2021/04/08 13:05:47;;;;;;;6.47;2.15;;;;;;;;;;5067335;28;20055;-72
2021/04/08 13:08:12;;;;;;;4.70;2.08;;;;;;;;;;5068104;28;20101;-72
2021/04/08 13:10:39;;;;;;;7.82;3.08;;;;;;;;;;5067849;28;20140;-71
2021/04/08 13:13:05;;;;;;;5.45;1.30;;;;;;;;;;5068080;28;20511;-72
2021/04/08 13:15:31;;;;;;;4.50;1.55;;;;;;;;;;5067641;28;20090;-72
2021/04/08 13:17:58;;;;;;;4.03;1.30;;;;;;;;;;5072046;28;20100;-72
2021/04/08 13:20:24;;;;;;;4.05;1.25;;;;;;;;;;5069805;28;20505;-73
2021/04/08 13:22:49;;;;;;;1.42;0.93;;;;;;;;;;5071297;28;20044;-73
2021/04/08 13:25:15;;;;;;;4.50;1.98;;;;;;;;;;5070484;28;20024;-72
2021/04/08 13:27:40;;;;;;;2.88;1.52;;;;;;;;;;5071218;28;20947;-73
2021/04/08 13:30:07;;;;;;;4.15;1.45;;;;;;;;;;5070536;28;20024;-73
2021/04/08 13:32:32;;;;;;;2.78;1.60;;;;;;;;;;5069988;28;20040;-72
2021/04/08 13:34:57;;;;;;;18.08;2.20;;;;;;;;;;5071051;28;20454;-72
2021/04/08 13:37:23;;;;;;;2.85;1.42;;;;;;;;;;5070047;28;20100;-72
2021/04/08 13:39:48;;;;;;;16.48;2.53;;;;;;;;;;5071381;28;20040;-72
2021/04/08 13:42:14;;;;;;;10.52;2.72;;;;;;;;;;5077176;28;20165;-69
2021/04/08 13:44:39;;;;;;;2.25;1.60;;;;;;;;;;5071221;28;20027;-70
2021/04/08 13:47:05;;;;;;;1.75;1.05;;;;;;;;;;5064735;28;20019;-70
2021/04/08 13:49:30;;;;;;;4.15;1.38;;;;;;;;;;5066262;28;20078;-71
2021/04/08 13:51:57;;;;;;;3.00;1.25;;;;;;;;;;5066081;28;20036;-71
2021/04/08 13:54:22;;;;;;;1.60;1.13;;;;;;;;;;5067222;28;20047;-68
2021/04/08 13:56:48;;;;;;;2.58;1.25;;;;;;;;;;5067697;28;20025;-71
2021/04/08 13:59:13;;;;;;;2.83;1.38;;;;;;;;;;5065801;28;20043;-69
2021/04/08 14:01:38;;;;;;;2.05;1.20;;;;;;;;;;5066792;28;20029;-70
2021/04/08 14:04:04;;;;;;;4.30;2.10;;;;;;;;;;5067973;28;20016;-69
2021/04/08 14:06:29;;;;;;;11.55;2.33;;;;;;;;;;5068432;28;20024;-71
2021/04/08 14:08:55;;;;;;;5.05;1.65;;;;;;;;;;5068582;28;20020;-71
2021/04/08 14:11:20;;;;;;;7.32;1.90;;;;;;;;;;5068460;28;20040;-69
2021/04/08 14:13:45;;;;;;;6.00;3.60;;;;;;;;;;5068308;28;20273;-68
2021/04/08 14:16:11;;;;;;;9.90;1.67;;;;;;;;;;5068170;28;20053;-71
2021/04/08 14:18:36;;;;;;;4.93;1.88;;;;;;;;;;5068270;28;20545;-71
2021/04/08 14:21:01;;;;;;;12.43;1.27;;;;;;;;;;5064367;28;20021;-69
2021/04/08 14:23:30;;;;;;;16.73;3.38;;;;;;;;;;5069844;28;20862;-69
2021/04/08 14:25:55;;;;;;;13.88;2.45;;;;;;;;;;5074909;28;20028;-70
2021/04/08 14:28:21;;;;;;;8.20;1.17;;;;;;;;;;5071472;28;20039;-70
2021/04/08 14:30:46;;;;;;;7.55;3.05;;;;;;;;;;5070310;28;20027;-70
2021/04/08 14:33:13;;;;;;;5.13;1.38;;;;;;;;;;5068090;28;20021;-69
2021/04/08 14:35:40;;;;;;;6.78;3.67;;;;;;;;;;5069644;28;20897;-69
2021/04/08 14:38:06;;;;;;;8.43;2.10;;;;;;;;;;5067522;28;20016;-70
2021/04/08 14:40:31;;;;;;;9.52;1.42;;;;;;;;;;5069144;28;20572;-71